Time;durP1;ratioP1;P1;durP2;ratioP2;P2;SDS_P1;SDS_P2;PMS_P1;PMS_P2;Temp;Humidity;BMP_temperature;BMP_pressure;BME280_temperature;BME280_humidity;BME280_pressure;Samples;Min_cycle;Max_cycle;Signal;HPM_P1;HPM_P2
2021/05/30 00:02:02;;;;;;;18.08;12.45;;;10.70;71.90;;;;;;5004350;28;20030;-79
2021/05/30 00:04:28;;;;;;;20.33;13.63;;;10.60;72.00;;;;;;4996802;28;20034;-80
2021/05/30 00:06:53;;;;;;;19.58;14.25;;;10.50;72.40;;;;;;5000942;28;20105;-79
2021/05/30 00:09:19;;;;;;;17.08;13.75;;;10.40;72.70;;;;;;4973148;28;20031;-79
2021/05/30 00:11:45;;;;;;;15.27;13.05;;;10.50;72.00;;;;;;4999692;28;20040;-79
2021/05/30 00:14:10;;;;;;;17.90;14.45;;;10.50;71.40;;;;;;4986201;28;20037;-79
2021/05/30 00:16:36;;;;;;;18.98;13.32;;;10.50;71.20;;;;;;4987024;28;20081;-79
2021/05/30 00:19:02;;;;;;;26.15;15.27;;;10.40;71.90;;;;;;4988471;28;20111;-79
2021/05/30 00:21:27;;;;;;;20.13;14.52;;;10.30;72.70;;;;;;4980489;28;20058;-79
2021/05/30 00:23:53;;;;;;;19.67;14.35;;;10.30;72.40;;;;;;4977553;28;20041;-79
2021/05/30 00:26:18;;;;;;;16.67;13.45;;;10.20;72.40;;;;;;5003774;28;20041;-79
2021/05/30 00:28:44;;;;;;;22.48;14.90;;;10.20;72.20;;;;;;4984490;28;20197;-80
2021/05/30 00:31:09;;;;;;;15.07;11.00;;;10.20;72.20;;;;;;4982503;28;20154;-79
2021/05/30 00:33:35;;;;;;;16.15;12.98;;;10.30;71.60;;;;;;4981733;28;20162;-79
2021/05/30 00:36:00;;;;;;;21.42;14.68;;;10.10;72.00;;;;;;4973521;28;20080;-79
2021/05/30 00:38:26;;;;;;;19.95;14.63;;;10.00;73.30;;;;;;4968816;28;20121;-79
2021/05/30 00:40:52;;;;;;;21.05;14.52;;;9.90;74.00;;;;;;4996556;28;20042;-79
2021/05/30 00:43:18;;;;;;;24.67;14.75;;;9.90;74.70;;;;;;4982434;28;20036;-79
2021/05/30 00:45:45;;;;;;;19.88;13.85;;;9.60;76.10;;;;;;4995553;28;20030;-79
2021/05/30 00:48:11;;;;;;;18.80;13.95;;;9.70;75.10;;;;;;4970016;28;20033;-79
2021/05/30 00:50:36;;;;;;;19.73;14.52;;;9.80;74.90;;;;;;4983670;28;20031;-79
2021/05/30 00:53:02;;;;;;;22.17;14.60;;;9.70;75.40;;;;;;4984794;28;20124;-79
2021/05/30 00:55:27;;;;;;;18.13;14.93;;;9.70;75.00;;;;;;4967423;28;20543;-79
2021/05/30 00:57:53;;;;;;;21.83;14.90;;;9.60;75.50;;;;;;4971559;28;20041;-79
2021/05/30 01:00:19;;;;;;;18.98;14.25;;;9.60;75.30;;;;;;4997156;28;20495;-79
2021/05/30 01:02:44;;;;;;;19.63;14.43;;;9.60;74.90;;;;;;4988595;28;20441;-79
2021/05/30 01:05:10;;;;;;;16.52;14.23;;;9.60;75.10;;;;;;5002989;28;20144;-80
2021/05/30 01:07:46;;;;;;;20.15;14.75;;;9.40;76.20;;;;;;4966211;28;20031;-79
2021/05/30 01:10:16;;;;;;;14.23;10.40;;;9.40;76.50;;;;;;4972568;28;20556;-79
2021/05/30 01:12:42;;;;;;;20.67;14.43;;;9.60;74.60;;;;;;4996686;28;20030;-79
2021/05/30 01:15:08;;;;;;;21.63;15.07;;;9.60;74.40;;;;;;4985503;28;20029;-79
2021/05/30 01:17:34;;;;;;;25.17;15.50;;;9.50;74.90;;;;;;4984361;28;20118;-79
2021/05/30 01:20:00;;;;;;;18.23;15.60;;;9.40;75.00;;;;;;4968196;28;20117;-79
2021/05/30 01:22:25;;;;;;;17.17;14.38;;;9.40;75.10;;;;;;4979760;28;20081;-79
2021/05/30 01:24:51;;;;;;;25.15;16.42;;;9.30;75.10;;;;;;4985007;28;20046;-79
2021/05/30 01:27:17;;;;;;;21.40;15.00;;;9.30;75.30;;;;;;4993310;28;20038;-79
2021/05/30 01:29:43;;;;;;;15.57;12.18;;;9.30;75.40;;;;;;4980011;28;20056;-79
2021/05/30 01:32:08;;;;;;;12.77;10.52;;;9.30;75.30;;;;;;4986188;28;20034;-79
2021/05/30 01:34:34;;;;;;;12.73;10.38;;;9.30;75.30;;;;;;5002640;28;20022;-79
2021/05/30 01:36:59;;;;;;;12.43;9.50;;;9.50;74.70;;;;;;4980338;28;20030;-79
2021/05/30 01:39:26;;;;;;;11.93;9.70;;;9.40;74.60;;;;;;4998342;28;20026;-79
2021/05/30 01:41:52;;;;;;;12.00;9.38;;;9.30;75.10;;;;;;4962878;28;20134;-79
2021/05/30 01:44:17;;;;;;;13.52;10.23;;;9.20;75.20;;;;;;4999656;28;20030;-79
2021/05/30 01:46:43;;;;;;;15.15;12.02;;;9.10;75.60;;;;;;4968313;28;20110;-79
2021/05/30 01:49:08;;;;;;;20.23;14.52;;;9.00;75.80;;;;;;4970485;28;20125;-78
2021/05/30 01:51:36;;;;;;;16.25;12.48;;;8.90;75.90;;;;;;4955721;28;20520;-79
2021/05/30 01:54:06;;;;;;;18.27;13.25;;;8.90;76.00;;;;;;4971562;28;20053;-79
2021/05/30 01:59:16;;;;;;;17.88;13.38;;;8.80;76.30;;;;;;5002235;28;20119;-79
2021/05/30 02:01:42;;;;;;;19.17;13.35;;;8.70;76.70;;;;;;4962730;28;20761;-79
2021/05/30 02:04:07;;;;;;;16.00;13.10;;;8.60;77.20;;;;;;4983096;28;20053;-79
2021/05/30 02:06:33;;;;;;;22.95;15.27;;;8.60;77.20;;;;;;4998529;28;20031;-79
2021/05/30 02:08:58;;;;;;;18.02;12.43;;;8.60;77.30;;;;;;4982449;28;20115;-78
2021/05/30 02:11:24;;;;;;;14.57;10.90;;;8.60;77.00;;;;;;4979005;28;20096;-79
2021/05/30 02:13:49;;;;;;;16.83;10.85;;;8.60;77.10;;;;;;4985943;28;20087;-79
2021/05/30 02:16:15;;;;;;;17.88;12.63;;;8.60;77.30;;;;;;4996443;28;20788;-78
2021/05/30 02:18:43;;;;;;;18.70;12.57;;;8.50;77.20;;;;;;4985166;28;20101;-78
2021/05/30 02:21:09;;;;;;;19.98;13.70;;;8.50;77.50;;;;;;4985445;28;20114;-78
2021/05/30 02:23:34;;;;;;;19.17;13.23;;;8.40;77.30;;;;;;4989456;28;20026;-78
2021/05/30 02:26:03;;;;;;;18.00;13.00;;;8.30;77.70;;;;;;4985046;28;20064;-79
2021/05/30 02:28:29;;;;;;;21.63;14.05;;;8.30;78.00;;;;;;4999612;28;20486;-79
2021/05/30 02:30:54;;;;;;;21.98;15.15;;;8.30;78.50;;;;;;4986203;28;20041;-79
2021/05/30 02:33:20;;;;;;;22.60;14.70;;;8.20;79.00;;;;;;5003868;28;20026;-78
2021/05/30 02:35:45;;;;;;;21.25;14.15;;;8.10;80.10;;;;;;4996979;28;20038;-79
2021/05/30 02:38:11;;;;;;;20.98;16.05;;;8.00;81.50;;;;;;4981985;28;20124;-79
2021/05/30 02:40:37;;;;;;;25.67;16.98;;;7.90;81.10;;;;;;5005496;28;20092;-79
2021/05/30 02:43:02;;;;;;;18.75;15.35;;;7.90;82.60;;;;;;4987648;28;20026;-79
2021/05/30 02:45:28;;;;;;;19.77;15.63;;;7.90;81.60;;;;;;4969312;28;20038;-79
2021/05/30 02:47:53;;;;;;;22.20;16.55;;;7.80;81.80;;;;;;4999379;28;20044;-79
2021/05/30 02:50:19;;;;;;;25.02;16.23;;;7.80;83.00;;;;;;5008724;28;20029;-79
2021/05/30 02:52:44;;;;;;;22.63;16.48;;;7.80;84.40;;;;;;5000895;28;20481;-79
2021/05/30 02:55:10;;;;;;;21.92;16.15;;;7.70;84.90;;;;;;5000113;28;20593;-79
2021/05/30 02:57:37;;;;;;;22.30;16.30;;;7.70;83.80;;;;;;4997345;28;20485;-79
2021/05/30 03:00:05;;;;;;;25.02;16.30;;;7.60;86.80;;;;;;5003533;28;20057;-79
2021/05/30 03:02:31;;;;;;;21.95;16.13;;;7.50;86.30;;;;;;5000490;28;20034;-79
2021/05/30 03:04:56;;;;;;;21.42;16.70;;;7.70;85.30;;;;;;5003736;28;20115;-79
2021/05/30 03:07:22;;;;;;;14.85;12.75;;;7.70;85.70;;;;;;4995629;28;20042;-79
2021/05/30 03:09:47;;;;;;;14.18;11.38;;;7.80;83.30;;;;;;4999923;28;20042;-79
2021/05/30 03:12:13;;;;;;;21.13;15.73;;;7.90;82.20;;;;;;4970410;28;20026;-79
2021/05/30 03:14:39;;;;;;;20.30;15.27;;;8.00;81.80;;;;;;5001336;28;20080;-79
2021/05/30 03:17:05;;;;;;;16.05;12.82;;;8.00;81.90;;;;;;4974736;28;20386;-78
2021/05/30 03:19:30;;;;;;;15.98;11.82;;;8.00;82.60;;;;;;4982856;28;20030;-79
2021/05/30 03:21:56;;;;;;;21.90;16.25;;;7.90;82.80;;;;;;4974247;28;20201;-79
2021/05/30 03:24:21;;;;;;;24.48;15.30;;;7.90;82.30;;;;;;5000517;28;20406;-78
2021/05/30 03:26:47;;;;;;;24.10;14.40;;;7.70;82.50;;;;;;4978566;28;20512;-79
2021/05/30 03:29:12;;;;;;;23.88;16.35;;;7.60;84.40;;;;;;4981984;28;20031;-79
2021/05/30 03:31:38;;;;;;;24.73;16.33;;;7.50;85.00;;;;;;4984479;28;20038;-78
2021/05/30 03:34:03;;;;;;;22.58;15.10;;;7.30;86.20;;;;;;5003158;28;20041;-79
2021/05/30 03:36:30;;;;;;;24.48;16.98;;;7.30;86.50;;;;;;5003206;28;20040;-79
2021/05/30 03:39:01;;;;;;;25.60;16.48;;;7.20;88.00;;;;;;4984551;28;20079;-78
2021/05/30 03:41:33;;;;;;;25.70;17.15;;;7.20;87.20;;;;;;4987561;28;20026;-79
2021/05/30 03:43:59;;;;;;;23.20;16.42;;;7.10;88.70;;;;;;4971773;28;20088;-79
2021/05/30 03:46:25;;;;;;;26.23;18.92;;;7.20;89.50;;;;;;4982790;28;20026;-79
2021/05/30 03:48:50;;;;;;;31.50;18.63;;;7.30;88.10;;;;;;5001027;28;20606;-79
2021/05/30 03:51:16;;;;;;;26.63;18.27;;;7.40;86.50;;;;;;4972019;28;20053;-79
2021/05/30 03:53:41;;;;;;;28.55;19.35;;;7.40;87.70;;;;;;4988791;28;20338;-77
2021/05/30 03:56:07;;;;;;;28.50;19.48;;;7.10;88.60;;;;;;4986683;28;20504;-76
2021/05/30 03:58:32;;;;;;;27.90;20.05;;;7.20;90.20;;;;;;4986125;28;20037;-77
2021/05/30 04:00:58;;;;;;;30.30;19.73;;;7.20;89.70;;;;;;4966429;28;20050;-77
2021/05/30 04:03:23;;;;;;;34.35;21.05;;;7.30;89.60;;;;;;4975172;28;20026;-77
2021/05/30 04:05:49;;;;;;;33.70;21.10;;;7.20;90.70;;;;;;4965701;28;20073;-77
2021/05/30 04:08:14;;;;;;;38.40;24.88;;;7.20;91.30;;;;;;4984908;28;20030;-77
2021/05/30 04:10:42;;;;;;;37.40;25.02;;;7.40;91.30;;;;;;4995796;28;20490;-77
2021/05/30 04:13:08;;;;;;;48.75;25.63;;;7.60;91.10;;;;;;4972360;28;20121;-77
2021/05/30 04:15:33;;;;;;;53.33;27.50;;;7.80;91.00;;;;;;4986009;28;20500;-77
2021/05/30 04:18:00;;;;;;;41.70;25.98;;;8.00;90.90;;;;;;5001754;28;20792;-77
2021/05/30 04:20:25;;;;;;;78.65;28.77;;;8.20;90.60;;;;;;4991285;28;20030;-77
2021/05/30 04:22:51;;;;;;;116.78;35.00;;;8.40;89.10;;;;;;4991306;28;20037;-78
2021/05/30 04:25:16;;;;;;;52.42;28.00;;;8.50;90.30;;;;;;4987398;28;20041;-78
2021/05/30 04:27:42;;;;;;;52.50;29.13;;;8.60;90.90;;;;;;4984715;28;20037;-78
2021/05/30 04:30:09;;;;;;;48.90;28.73;;;8.60;91.20;;;;;;4985366;28;20030;-77
2021/05/30 04:32:35;;;;;;;53.78;31.42;;;8.80;91.20;;;;;;4968663;28;20473;-78
2021/05/30 04:35:03;;;;;;;57.00;29.30;;;9.00;91.00;;;;;;5001471;28;20034;-78
2021/05/30 04:37:28;;;;;;;56.05;30.83;;;9.10;91.00;;;;;;4980457;28;20042;-77
2021/05/30 04:39:54;;;;;;;58.05;33.03;;;9.30;91.10;;;;;;4997169;28;20038;-78
2021/05/30 04:42:19;;;;;;;55.40;29.80;;;9.50;91.60;;;;;;4995413;28;20037;-78
2021/05/30 04:44:47;;;;;;;59.90;34.05;;;9.70;90.90;;;;;;4996388;28;20030;-78
2021/05/30 04:47:13;;;;;;;61.90;33.97;;;9.90;90.60;;;;;;4980000;28;20049;-78
2021/05/30 04:49:39;;;;;;;54.38;31.48;;;10.00;90.30;;;;;;4983826;28;20426;-78
2021/05/30 04:52:06;;;;;;;41.80;24.95;;;10.20;89.60;;;;;;4971930;28;20088;-78
2021/05/30 04:54:32;;;;;;;48.67;29.95;;;10.40;87.50;;;;;;4966429;28;20034;-79
2021/05/30 04:56:57;;;;;;;42.88;28.13;;;10.60;90.00;;;;;;4991454;28;20037;-79
2021/05/30 04:59:23;;;;;;;42.65;28.80;;;10.80;89.30;;;;;;4983216;28;20366;-79
2021/05/30 05:01:48;;;;;;;40.28;27.55;;;11.00;89.20;;;;;;4981443;28;20038;-79
2021/05/30 05:04:14;;;;;;;35.38;24.55;;;11.20;89.50;;;;;;4983992;28;20030;-79
2021/05/30 05:06:41;;;;;;;34.00;23.70;;;11.40;90.20;;;;;;4997860;28;20092;-80
2021/05/30 05:09:06;;;;;;;31.13;23.42;;;11.70;90.30;;;;;;4971539;28;20121;-80
2021/05/30 05:11:32;;;;;;;31.40;22.42;;;11.90;90.30;;;;;;5000735;28;20114;-79
2021/05/30 05:13:58;;;;;;;29.73;21.92;;;12.10;90.70;;;;;;4995142;28;20165;-79
2021/05/30 05:16:24;;;;;;;30.05;20.92;;;12.30;90.30;;;;;;4996205;28;20030;-79
2021/05/30 05:18:49;;;;;;;25.05;18.92;;;12.50;90.10;;;;;;4993654;28;20045;-79
2021/05/30 05:21:15;;;;;;;26.75;19.02;;;12.80;90.30;;;;;;4988110;28;20026;-79
2021/05/30 05:23:40;;;;;;;25.88;19.35;;;13.00;89.70;;;;;;4970179;28;20498;-79
2021/05/30 05:26:06;;;;;;;25.17;19.35;;;13.30;91.20;;;;;;4958511;28;20034;-79
2021/05/30 05:28:32;;;;;;;24.02;17.92;;;13.50;90.60;;;;;;4994077;28;20038;-79
2021/05/30 05:30:58;;;;;;;24.75;18.27;;;13.70;91.00;;;;;;4980113;28;20081;-80
2021/05/30 05:33:23;;;;;;;22.83;17.67;;;13.90;90.20;;;;;;4978716;28;20084;-80
2021/05/30 05:35:49;;;;;;;23.08;17.80;;;14.10;90.30;;;;;;4977529;28;20129;-79
2021/05/30 05:38:14;;;;;;;25.30;18.08;;;14.40;91.30;;;;;;4982076;28;20125;-79
2021/05/30 05:40:40;;;;;;;24.33;18.45;;;14.60;90.90;;;;;;4982365;28;20061;-79
2021/05/30 05:43:06;;;;;;;23.63;17.50;;;14.80;90.90;;;;;;4966069;28;20527;-79
2021/05/30 05:45:32;;;;;;;26.33;19.30;;;15.10;90.40;;;;;;4977645;28;20454;-79
2021/05/30 05:47:57;;;;;;;26.35;17.77;;;15.20;90.60;;;;;;4961666;28;20038;-79
2021/05/30 05:50:23;;;;;;;26.95;17.70;;;15.40;90.20;;;;;;4984953;28;20113;-79
2021/05/30 05:52:50;;;;;;;24.63;18.30;;;15.60;90.50;;;;;;4996920;28;20046;-79
2021/05/30 05:55:15;;;;;;;26.90;18.27;;;15.90;90.40;;;;;;4962719;28;20034;-79
2021/05/30 05:57:42;;;;;;;23.33;16.67;;;16.10;90.20;;;;;;4998487;28;20401;-80
2021/05/30 06:00:11;;;;;;;23.83;15.55;;;16.40;90.20;;;;;;4972203;28;20389;-79
2021/05/30 06:02:37;;;;;;;25.02;16.25;;;16.70;89.90;;;;;;4979224;28;20478;-79
2021/05/30 06:05:04;;;;;;;22.70;15.88;;;16.90;89.80;;;;;;4997212;28;20376;-79
2021/05/30 06:07:30;;;;;;;21.85;15.60;;;17.10;89.70;;;;;;4999862;28;20030;-79
2021/05/30 06:09:55;;;;;;;21.33;16.10;;;17.10;88.90;;;;;;4982588;28;20032;-79
2021/05/30 06:12:21;;;;;;;18.52;14.95;;;17.40;88.70;;;;;;4981519;28;20180;-80
2021/05/30 06:14:46;;;;;;;21.02;14.13;;;17.70;88.30;;;;;;4980757;28;20549;-80
2021/05/30 06:17:12;;;;;;;17.48;13.73;;;18.00;87.70;;;;;;4964818;28;20026;-80
2021/05/30 06:19:38;;;;;;;18.40;13.57;;;18.30;86.80;;;;;;4980502;28;20041;-80
2021/05/30 06:22:04;;;;;;;17.42;12.95;;;18.40;86.30;;;;;;4967615;28;20038;-80
2021/05/30 06:24:30;;;;;;;19.50;14.13;;;18.60;85.10;;;;;;4976408;28;20130;-79
2021/05/30 06:26:56;;;;;;;16.20;12.45;;;18.80;85.10;;;;;;4981746;28;20046;-80
2021/05/30 06:29:21;;;;;;;26.17;14.40;;;18.90;84.80;;;;;;4964945;28;20037;-80
2021/05/30 06:31:47;;;;;;;18.02;13.07;;;19.10;84.00;;;;;;4979426;28;20104;-80
2021/05/30 06:34:15;;;;;;;23.07;14.97;;;19.30;83.20;;;;;;4631172;28;10001213;-80
2021/05/30 06:36:44;;;;;;;20.00;13.75;;;19.50;83.80;;;;;;4989737;28;20045;-80
2021/05/30 06:39:10;;;;;;;15.75;13.80;;;19.80;82.70;;;;;;4974281;28;20031;-80
2021/05/30 06:41:36;;;;;;;14.73;11.02;;;19.90;81.60;;;;;;4980597;28;20397;-80
2021/05/30 06:44:02;;;;;;;19.85;13.27;;;20.10;81.70;;;;;;4977416;28;20541;-80
2021/05/30 06:46:28;;;;;;;15.63;12.45;;;20.30;80.20;;;;;;4976323;28;20057;-80
2021/05/30 06:48:53;;;;;;;14.05;11.25;;;20.50;79.90;;;;;;4979902;28;20497;-80
2021/05/30 06:51:22;;;;;;;15.48;12.15;;;20.60;79.10;;;;;;4978650;28;20026;-80
2021/05/30 06:53:48;;;;;;;17.92;12.85;;;20.80;79.20;;;;;;4993663;28;20164;-80
2021/05/30 06:56:14;;;;;;;13.75;11.30;;;21.00;78.70;;;;;;4979269;28;20030;-80
2021/05/30 06:58:40;;;;;;;16.02;12.55;;;21.10;77.60;;;;;;4970505;28;20030;-80
2021/05/30 07:01:05;;;;;;;12.68;11.13;;;21.40;76.70;;;;;;4985899;28;20069;-81
2021/05/30 07:03:31;;;;;;;14.45;11.57;;;21.60;76.50;;;;;;4980427;28;20129;-80
2021/05/30 07:05:57;;;;;;;14.00;10.73;;;21.70;75.90;;;;;;4992220;28;20037;-80
2021/05/30 07:08:23;;;;;;;16.77;11.80;;;21.70;76.10;;;;;;4967057;28;20486;-81
2021/05/30 07:10:48;;;;;;;16.08;11.93;;;21.90;74.50;;;;;;4982410;28;20084;-81
2021/05/30 07:13:14;;;;;;;14.43;10.57;;;22.10;72.60;;;;;;4985915;28;20042;-81
2021/05/30 07:15:40;;;;;;;13.68;11.40;;;22.30;73.90;;;;;;4995127;28;20509;-81
2021/05/30 07:18:05;;;;;;;11.55;9.02;;;22.30;72.10;;;;;;4980376;28;20034;-81
2021/05/30 07:20:31;;;;;;;11.85;9.32;;;22.60;71.30;;;;;;4998606;28;20030;-81
2021/05/30 07:22:56;;;;;;;12.05;9.32;;;22.40;72.20;;;;;;4977900;28;20034;-81
2021/05/30 07:25:22;;;;;;;9.98;8.90;;;22.70;71.80;;;;;;4998334;28;20580;-81
2021/05/30 07:27:47;;;;;;;11.65;9.77;;;22.80;71.70;;;;;;4998558;28;20031;-81
2021/05/30 07:30:14;;;;;;;8.55;7.55;;;23.10;70.90;;;;;;4980701;28;20396;-80
2021/05/30 07:32:40;;;;;;;10.30;8.35;;;23.30;70.00;;;;;;4981820;28;20043;-81
2021/05/30 07:35:06;;;;;;;11.00;9.27;;;23.40;68.70;;;;;;4983070;28;20042;-81
2021/05/30 07:37:31;;;;;;;11.88;8.27;;;23.60;65.30;;;;;;4985087;28;20409;-81
2021/05/30 07:39:57;;;;;;;12.07;9.07;;;23.60;65.30;;;;;;4984984;28;20033;-81
2021/05/30 07:42:22;;;;;;;10.05;8.40;;;23.80;64.40;;;;;;4994954;28;20514;-82
2021/05/30 07:44:48;;;;;;;10.27;7.90;;;23.70;65.70;;;;;;4972092;28;20397;-81
2021/05/30 07:47:13;;;;;;;12.98;8.23;;;23.90;65.20;;;;;;4997381;28;20018;-81
2021/05/30 07:49:39;;;;;;;11.77;8.90;;;24.10;65.50;;;;;;4999031;28;20061;-81
2021/05/30 07:52:05;;;;;;;10.75;7.95;;;24.50;63.70;;;;;;4985962;28;20498;-81
2021/05/30 07:54:30;;;;;;;11.02;7.47;;;24.60;63.70;;;;;;4966797;28;20035;-81
2021/05/30 07:56:56;;;;;;;11.45;6.55;;;24.50;62.00;;;;;;4981248;28;20049;-81
2021/05/30 07:59:21;;;;;;;8.68;6.13;;;24.70;63.00;;;;;;4998582;28;20121;-82
2021/05/30 08:01:48;;;;;;;8.90;6.95;;;24.70;62.00;;;;;;4983467;28;20505;-81
2021/05/30 08:04:14;;;;;;;9.88;6.93;;;24.80;62.60;;;;;;4981439;28;20058;-82
2021/05/30 08:06:39;;;;;;;8.05;6.45;;;25.00;61.90;;;;;;4981043;28;20987;-81
2021/05/30 08:09:05;;;;;;;7.88;6.95;;;25.10;61.20;;;;;;4985991;28;20164;-82
2021/05/30 08:11:30;;;;;;;9.30;7.20;;;25.30;60.50;;;;;;4979857;28;20444;-82
2021/05/30 08:13:56;;;;;;;8.27;6.30;;;25.50;58.50;;;;;;4997095;28;20122;-82
2021/05/30 08:16:22;;;;;;;9.73;7.45;;;25.60;57.90;;;;;;4986653;28;20532;-82
2021/05/30 08:18:48;;;;;;;6.78;5.75;;;25.70;58.10;;;;;;4982383;28;20248;-82
2021/05/30 08:21:14;;;;;;;6.15;5.10;;;25.90;58.60;;;;;;4998775;28;20615;-82
2021/05/30 08:23:41;;;;;;;5.80;4.85;;;25.90;57.80;;;;;;4994713;28;20035;-82
2021/05/30 08:26:08;;;;;;;5.97;4.13;;;25.90;57.10;;;;;;4972330;28;20042;-82
2021/05/30 08:28:33;;;;;;;5.05;4.50;;;25.90;58.30;;;;;;4980998;28;20085;-83
2021/05/30 08:30:59;;;;;;;6.65;4.47;;;26.20;55.70;;;;;;4968350;28;20751;-82
2021/05/30 08:33:24;;;;;;;6.57;5.18;;;26.50;57.30;;;;;;4982764;28;20035;-82
2021/05/30 08:35:50;;;;;;;5.38;4.10;;;26.50;56.20;;;;;;4993894;28;20077;-82
2021/05/30 08:38:15;;;;;;;6.93;4.10;;;26.60;56.90;;;;;;4976622;28;20058;-82
2021/05/30 08:40:41;;;;;;;5.65;4.13;;;26.70;55.50;;;;;;4996280;28;20489;-81
2021/05/30 08:43:07;;;;;;;5.18;3.65;;;26.80;55.50;;;;;;4979742;28;20042;-80
2021/05/30 08:45:33;;;;;;;4.22;3.83;;;26.80;55.50;;;;;;4978799;28;20089;-82
2021/05/30 08:47:58;;;;;;;7.68;4.80;;;27.10;53.20;;;;;;4992528;28;20037;-83
2021/05/30 08:50:24;;;;;;;7.80;5.07;;;27.40;53.10;;;;;;4976174;28;20057;-83
2021/05/30 08:52:49;;;;;;;5.90;4.32;;;27.50;51.60;;;;;;4962189;28;20048;-82
2021/05/30 08:55:15;;;;;;;3.97;3.20;;;27.30;53.10;;;;;;4992877;28;20034;-83
2021/05/30 08:57:40;;;;;;;4.00;3.15;;;27.30;53.60;;;;;;4968549;28;20022;-80
2021/05/30 09:00:09;;;;;;;3.63;3.10;;;27.50;53.60;;;;;;5003506;28;20069;-81
2021/05/30 09:02:35;;;;;;;6.18;3.78;;;27.60;53.00;;;;;;5007830;28;20041;-81
2021/05/30 09:05:02;;;;;;;5.78;4.22;;;27.90;51.30;;;;;;4986683;28;20256;-80
2021/05/30 09:07:44;;;;;;;7.00;5.22;;;27.90;52.50;;;;;;4961580;28;20109;-81
2021/05/30 09:10:12;;;;;;;6.40;4.00;;;28.20;49.50;;;;;;4964783;28;20115;-81
2021/05/30 09:12:38;;;;;;;5.57;3.55;;;28.40;48.40;;;;;;4994953;28;20038;-81
2021/05/30 09:15:12;;;;;;;4.95;3.75;;;28.40;49.40;;;;;;4978052;28;20053;-81
2021/05/30 09:17:37;;;;;;;5.03;3.50;;;28.50;50.00;;;;;;4983073;28;20520;-82
2021/05/30 09:20:05;;;;;;;4.15;3.30;;;28.60;46.70;;;;;;4977393;28;20034;-82
2021/05/30 09:22:38;;;;;;;3.97;3.42;;;28.60;46.80;;;;;;4979321;28;20022;-79
2021/05/30 09:25:06;;;;;;;3.95;3.50;;;28.80;46.90;;;;;;4993852;28;20117;-82
2021/05/30 09:27:33;;;;;;;3.38;2.72;;;28.80;46.20;;;;;;4993016;28;20039;-78
2021/05/30 09:30:11;;;;;;;4.13;3.53;;;28.80;47.50;;;;;;4976668;28;20037;-81
2021/05/30 09:33:07;;;;;;;3.70;3.03;;;28.60;48.20;;;;;;4980366;28;20135;-80
2021/05/30 09:35:39;;;;;;;3.40;3.10;;;28.90;46.10;;;;;;4999655;28;20094;-81
2021/05/30 09:38:08;;;;;;;3.95;2.88;;;29.10;45.40;;;;;;4992819;28;20037;-81
2021/05/30 09:40:56;;;;;;;3.50;3.13;;;29.20;47.40;;;;;;4993494;28;20045;-81
2021/05/30 09:43:24;;;;;;;2.60;2.40;;;29.30;45.40;;;;;;4952929;28;20031;-80
2021/05/30 09:46:06;;;;;;;3.22;2.33;;;29.40;44.80;;;;;;4974885;28;20037;-81
2021/05/30 09:48:31;;;;;;;2.85;2.17;;;30.00;47.50;;;;;;4974391;28;20030;-80
2021/05/30 09:51:06;;;;;;;3.70;2.70;;;29.90;47.30;;;;;;4992612;28;20038;-80
2021/05/30 09:53:35;;;;;;;4.03;3.00;;;29.80;46.40;;;;;;4983785;28;20068;-80
2021/05/30 09:56:00;;;;;;;3.55;2.70;;;30.20;39.90;;;;;;4973190;28;20125;-81
2021/05/30 09:58:26;;;;;;;2.45;2.05;;;30.20;41.20;;;;;;4977979;28;20125;-80
2021/05/30 10:00:51;;;;;;;3.15;2.85;;;30.00;43.10;;;;;;4975391;28;20041;-81
2021/05/30 10:03:20;;;;;;;5.03;3.17;;;30.20;39.30;;;;;;4997586;28;20077;-81
2021/05/30 10:05:45;;;;;;;4.22;3.58;;;30.30;40.30;;;;;;4984940;28;20466;-80
2021/05/30 10:08:11;;;;;;;4.93;3.38;;;30.30;39.90;;;;;;4988284;28;20030;-81
2021/05/30 10:10:36;;;;;;;4.10;2.38;;;30.40;39.00;;;;;;4995756;28;20030;-81
2021/05/30 10:13:03;;;;;;;2.90;2.63;;;30.20;39.40;;;;;;4981718;28;20022;-82
2021/05/30 10:15:29;;;;;;;4.30;2.70;;;30.10;39.50;;;;;;4993764;28;20042;-81
2021/05/30 10:17:57;;;;;;;3.35;2.50;;;30.10;40.20;;;;;;4979373;28;20046;-81
2021/05/30 10:20:23;;;;;;;2.60;2.40;;;30.00;40.50;;;;;;4974007;28;20119;-81
2021/05/30 10:22:54;;;;;;;2.53;2.33;;;30.00;42.10;;;;;;4991618;28;20129;-81
2021/05/30 10:25:30;;;;;;;3.30;2.75;;;30.10;41.40;;;;;;4981378;28;20033;-81
2021/05/30 10:28:14;;;;;;;3.40;2.58;;;30.20;39.40;;;;;;4987009;28;20050;-80
2021/05/30 10:30:42;;;;;;;3.03;2.67;;;30.30;39.90;;;;;;4978647;28;20034;-81
2021/05/30 10:33:12;;;;;;;2.97;2.47;;;30.40;39.60;;;;;;4968380;28;20129;-81
2021/05/30 10:35:37;;;;;;;3.22;2.65;;;30.60;37.50;;;;;;4969235;28;20045;-81
2021/05/30 10:38:03;;;;;;;3.60;2.50;;;30.60;37.40;;;;;;4971164;28;20030;-80
2021/05/30 10:40:32;;;;;;;3.30;2.42;;;30.70;39.30;;;;;;4982460;28;20763;-80
2021/05/30 10:43:10;;;;;;;2.55;2.35;;;30.70;38.50;;;;;;4983711;28;20034;-80
2021/05/30 10:45:42;;;;;;;2.97;2.60;;;30.80;39.80;;;;;;4995790;28;20030;-80
2021/05/30 10:48:20;;;;;;;2.67;2.30;;;30.90;36.90;;;;;;4996805;28;20031;-80
2021/05/30 10:53:44;;;;;;;2.20;2.00;;;30.90;35.40;;;;;;4997560;28;20383;-79
2021/05/30 10:56:17;;;;;;;3.03;2.40;;;30.90;34.60;;;;;;4995573;28;20045;-79
2021/05/30 10:58:42;;;;;;;3.20;2.83;;;30.80;35.80;;;;;;5004508;28;20485;-78
2021/05/30 11:01:38;;;;;;;3.08;2.50;;;30.80;36.40;;;;;;4993787;28;20038;-81
2021/05/30 11:04:29;;;;;;;2.00;1.90;;;30.90;38.60;;;;;;5001445;28;20092;-80
2021/05/30 11:06:56;;;;;;;4.63;2.25;;;30.90;34.40;;;;;;5005935;28;20072;-81
2021/05/30 11:09:22;;;;;;;2.72;2.20;;;31.00;34.80;;;;;;4981896;28;20104;-82
2021/05/30 11:12:19;;;;;;;3.80;2.05;;;30.90;33.20;;;;;;4971958;28;20541;-81
2021/05/30 11:15:16;;;;;;;1.95;1.80;;;31.00;35.10;;;;;;4983808;28;20250;-82
2021/05/30 11:18:01;;;;;;;4.32;2.17;;;31.10;36.90;;;;;;5001676;28;20616;-82
2021/05/30 11:20:40;;;;;;;4.40;1.73;;;31.80;38.20;;;;;;4981158;28;20040;-81
2021/05/30 11:23:10;;;;;;;2.00;1.65;;;31.80;36.80;;;;;;4974266;28;20092;-81
2021/05/30 11:25:48;;;;;;;2.95;1.90;;;31.50;35.60;;;;;;4970938;28;20062;-82
2021/05/30 11:28:14;;;;;;;1.52;1.42;;;31.50;34.10;;;;;;4994706;28;20118;-81
2021/05/30 11:30:44;;;;;;;2.67;1.50;;;31.70;36.40;;;;;;4981628;28;20084;-81
2021/05/30 11:33:13;;;;;;;5.10;1.90;;;32.10;36.60;;;;;;4996134;28;20092;-79
2021/05/30 11:35:39;;;;;;;2.13;1.80;;;32.00;35.40;;;;;;4988584;28;20066;-81
2021/05/30 11:38:05;;;;;;;2.97;2.03;;;31.90;32.10;;;;;;4977505;28;20643;-80
2021/05/30 11:40:33;;;;;;;2.50;2.17;;;31.90;34.20;;;;;;4979127;28;20117;-81
2021/05/30 11:42:59;;;;;;;2.17;1.90;;;31.90;33.30;;;;;;4997816;28;20516;-80
2021/05/30 11:45:35;;;;;;;1.75;1.65;;;32.10;32.60;;;;;;4995267;28;20560;-81
2021/05/30 11:48:08;;;;;;;2.50;1.80;;;32.10;29.70;;;;;;4984171;28;20034;-81
2021/05/30 11:50:35;;;;;;;1.70;1.60;;;32.00;30.80;;;;;;5002065;28;21070;-81
2021/05/30 11:53:24;;;;;;;4.45;1.50;;;32.10;33.40;;;;;;4973260;28;20632;-80
2021/05/30 11:55:50;;;;;;;2.65;1.60;;;32.10;32.00;;;;;;4296799;28;10000521;-82
2021/05/30 11:58:15;;;;;;;2.50;1.67;;;32.20;33.50;;;;;;4962632;28;20066;-80
2021/05/30 12:00:41;;;;;;;2.20;2.00;;;32.20;33.60;;;;;;4981519;28;20571;-80
2021/05/30 12:03:10;;;;;;;3.72;1.90;;;32.20;30.50;;;;;;4977674;28;20056;-80
2021/05/30 12:05:37;;;;;;;2.40;2.20;;;32.20;29.90;;;;;;4977514;28;20121;-80
2021/05/30 12:08:18;;;;;;;1.60;1.50;;;32.10;29.90;;;;;;4961518;28;20125;-81
2021/05/30 12:10:54;;;;;;;4.60;1.80;;;32.20;30.50;;;;;;4976456;28;20032;-80
2021/05/30 12:13:28;;;;;;;4.22;1.60;;;32.10;31.90;;;;;;4983850;28;20041;-79
2021/05/30 12:15:54;;;;;;;2.20;2.00;;;32.30;31.70;;;;;;4991440;28;20034;-81
2021/05/30 12:18:21;;;;;;;2.35;1.40;;;32.30;30.60;;;;;;4990573;28;20048;-82
2021/05/30 12:20:47;;;;;;;3.47;1.90;;;32.20;30.00;;;;;;4973297;28;20030;-81
2021/05/30 12:23:14;;;;;;;2.13;1.73;;;32.10;31.40;;;;;;4981915;28;20034;-79
2021/05/30 12:26:10;;;;;;;2.30;1.80;;;32.20;31.30;;;;;;4975655;28;20037;-79
2021/05/30 12:28:36;;;;;;;2.67;2.03;;;32.30;31.90;;;;;;4994008;28;20083;-81
2021/05/30 12:31:12;;;;;;;2.95;1.58;;;32.30;30.60;;;;;;4962757;28;20029;-81
2021/05/30 12:33:54;;;;;;;4.50;1.80;;;32.30;29.60;;;;;;4977691;28;20113;-80
2021/05/30 12:36:44;;;;;;;1.75;1.65;;;32.30;28.90;;;;;;4995483;28;20061;-81
2021/05/30 12:39:13;;;;;;;2.05;1.88;;;32.30;30.70;;;;;;4996459;28;20030;-81
2021/05/30 12:41:40;;;;;;;2.08;1.75;;;32.30;29.00;;;;;;4997184;28;20100;-82
2021/05/30 12:44:17;;;;;;;1.70;1.60;;;32.40;29.90;;;;;;4973435;28;20080;-81
2021/05/30 12:47:20;;;;;;;2.35;1.60;;;32.60;31.30;;;;;;4994886;28;20044;-82